Time;durP1;ratioP1;P1;durP2;ratioP2;P2;SDS_P1;SDS_P2;PMS_P1;PMS_P2;Temp;Humidity;BMP_temperature;BMP_pressure;BME280_temperature;BME280_humidity;BME280_pressure;Samples;Min_cycle;Max_cycle;Signal;HPM_P1;HPM_P2
2021/05/26 00:01:20;;;;;;;2.35;0.70;;;;;;;16.12;65.43;99751.98;1737236;80;21370;-52
2021/05/26 00:03:47;;;;;;;1.70;0.72;;;;;;;16.09;65.52;99745.41;1730166;80;21128;-55
2021/05/26 00:06:13;;;;;;;4.53;0.68;;;;;;;16.07;65.60;99746.90;1733028;80;21088;-51
2021/05/26 00:08:40;;;;;;;1.00;0.47;;;;;;;16.07;65.74;99747.39;1733538;80;21529;-51
2021/05/26 00:11:14;;;;;;;1.92;0.70;;;;;;;16.05;65.83;99743.91;1737116;80;21854;-53
2021/05/26 00:13:42;;;;;;;4.33;1.12;;;;;;;16.03;65.89;99747.20;1739717;80;21448;-52
2021/05/26 00:16:11;;;;;;;1.40;0.60;;;;;;;16.01;65.97;99744.59;1735471;80;20905;-50
2021/05/26 00:18:39;;;;;;;3.35;0.62;;;;;;;15.98;66.07;99739.41;1735335;80;21585;-50
2021/05/26 00:21:07;;;;;;;1.65;0.60;;;;;;;15.98;66.07;99739.41;1740678;80;20954;-51
2021/05/26 00:23:34;;;;;;;2.25;0.60;;;;;;;15.97;66.14;99738.14;1736169;80;21104;-51
2021/05/26 00:26:00;;;;;;;2.47;0.70;;;;;;;15.95;66.27;99742.80;1737398;80;20957;-55
2021/05/26 00:28:26;;;;;;;1.42;0.60;;;;;;;15.93;66.38;99747.47;1736660;80;20972;-51
2021/05/26 00:30:55;;;;;;;1.35;0.60;;;;;;;15.90;66.50;99743.14;1737247;80;20968;-54
2021/05/26 00:33:21;;;;;;;2.08;0.60;;;;;;;15.89;66.61;99746.34;1733912;80;20952;-51
2021/05/26 00:35:48;;;;;;;6.17;0.90;;;;;;;15.87;66.72;99738.79;1734607;80;21444;-54
2021/05/26 00:38:15;;;;;;;2.25;1.00;;;;;;;15.88;66.83;99743.73;1734253;80;20956;-53
2021/05/26 00:40:41;;;;;;;10.53;2.20;;;;;;;15.88;66.92;99743.25;1709565;80;20949;-51
2021/05/26 00:43:08;;;;;;;12.53;3.17;;;;;;;15.88;66.99;99740.53;1707386;82;20992;-55
2021/05/26 00:45:35;;;;;;;9.98;2.35;;;;;;;15.88;67.07;99737.82;1704882;82;20953;-55
2021/05/26 00:48:02;;;;;;;6.75;2.17;;;;;;;15.86;67.13;99738.41;1701130;82;21699;-54
2021/05/26 00:50:33;;;;;;;10.05;2.05;;;;;;;15.85;67.19;99738.02;1705993;82;21550;-51
2021/05/26 00:53:07;;;;;;;4.97;1.95;;;;;;;15.83;67.28;99737.73;1702479;82;20878;-51
2021/05/26 00:55:33;;;;;;;3.60;0.80;;;;;;;15.80;67.36;99732.06;1701304;82;20993;-55
2021/05/26 00:58:00;;;;;;;1.72;0.60;;;;;;;15.78;67.43;99731.78;1703364;82;21076;-54
2021/05/26 01:00:29;;;;;;;1.57;0.68;;;;;;;15.73;67.52;99733.47;1705659;82;22052;-50
2021/05/26 01:03:06;;;;;;;2.47;0.50;;;;;;;15.70;67.63;99730.09;1700267;82;21163;-51
2021/05/26 01:05:34;;;;;;;1.95;0.40;;;;;;;15.66;67.74;99718.56;1680086;83;21124;-49
2021/05/26 01:08:01;;;;;;;0.80;0.40;;;;;;;15.66;67.83;99717.69;1702936;82;20937;-50
2021/05/26 01:10:30;;;;;;;0.90;0.30;;;;;;;15.64;67.99;99716.47;1703626;82;20906;-53
2021/05/26 01:13:04;;;;;;;0.55;0.30;;;;;;;15.63;68.11;99722.87;1702701;82;21050;-50
2021/05/26 01:15:30;;;;;;;0.53;0.40;;;;;;;15.62;68.23;99719.77;1701054;82;21123;-50
2021/05/26 01:17:57;;;;;;;2.52;0.50;;;;;;;15.62;68.37;99713.47;1703965;82;21000;-51
2021/05/26 01:20:28;;;;;;;0.70;0.40;;;;;;;15.63;68.45;99714.73;1702894;82;21629;-53
2021/05/26 01:22:57;;;;;;;0.40;0.37;;;;;;;15.63;68.55;99719.28;1703944;82;21147;-51
2021/05/26 01:25:25;;;;;;;1.07;0.30;;;;;;;15.60;68.63;99715.41;1703613;82;21136;-50
2021/05/26 01:27:51;;;;;;;3.37;0.50;;;;;;;15.58;68.74;99723.66;1699718;82;21112;-51
2021/05/26 01:30:19;;;;;;;2.12;0.50;;;;;;;15.55;68.83;99718.95;1697732;82;21111;-50
2021/05/26 01:32:47;;;;;;;1.67;0.40;;;;;;;15.54;68.90;99722.14;1702038;82;21136;-52
2021/05/26 01:35:16;;;;;;;4.22;0.65;;;;;;;15.54;68.95;99718.08;1685666;82;21294;-54
2021/05/26 01:37:44;;;;;;;3.45;0.65;;;;;;;15.54;68.98;99714.49;1703944;82;21848;-53
2021/05/26 01:40:13;;;;;;;3.62;1.00;;;;;;;15.52;69.03;99709.13;1702621;82;21083;-55
2021/05/26 01:42:40;;;;;;;2.62;1.17;;;;;;;15.52;69.09;99701.00;1703537;82;21525;-55
2021/05/26 01:45:14;;;;;;;5.55;1.32;;;;;;;15.50;69.13;99705.16;1702977;82;21515;-53
2021/05/26 01:47:38;;;;;;;8.30;1.50;;;;;;;15.48;69.16;99699.48;1703161;82;21561;-51
2021/05/26 01:50:19;;;;;;;6.37;1.92;;;;;;;15.46;69.23;99710.44;1703438;82;21557;-51
2021/05/26 01:52:37;;;;;;;13.80;3.27;;;;;;;15.44;69.26;99714.22;1706190;82;21040;-52
2021/05/26 01:55:05;;;;;;;12.40;3.40;;;;;;;15.41;69.31;99715.77;1700595;82;21102;-51
2021/05/26 01:57:32;;;;;;;11.90;1.90;;;;;;;15.38;69.40;99715.52;1703416;82;21089;-53
2021/05/26 02:00:03;;;;;;;11.80;2.52;;;;;;;15.36;69.47;99711.17;1699375;82;21088;-52
2021/05/26 02:02:31;;;;;;;12.15;2.67;;;;;;;15.34;69.57;99710.39;1700350;82;21092;-51
2021/05/26 02:04:58;;;;;;;11.75;2.10;;;;;;;15.32;69.66;99708.27;1700943;82;21108;-51
2021/05/26 02:07:25;;;;;;;5.80;1.45;;;;;;;15.31;69.76;99706.04;1702190;82;21497;-53
2021/05/26 02:09:51;;;;;;;2.15;0.70;;;;;;;15.31;69.86;99696.55;1703043;82;21127;-52
2021/05/26 02:12:24;;;;;;;3.10;0.78;;;;;;;15.31;69.92;99690.28;1700658;82;21056;-51
2021/05/26 02:14:56;;;;;;;3.08;0.65;;;;;;;15.31;69.98;99693.84;1706701;82;21104;-53
2021/05/26 02:17:22;;;;;;;2.50;0.50;;;;;;;15.31;70.04;99690.28;1702937;82;21068;-51
2021/05/26 02:19:52;;;;;;;2.50;0.65;;;;;;;15.29;70.09;99685.45;1701086;82;20969;-51
2021/05/26 02:22:18;;;;;;;2.37;0.50;;;;;;;15.28;70.18;99687.77;1705184;82;21012;-51
2021/05/26 02:24:46;;;;;;;2.30;0.50;;;;;;;15.28;70.26;99695.42;1703083;82;21076;-51
2021/05/26 02:27:12;;;;;;;1.60;0.40;;;;;;;15.29;70.31;99686.80;1702984;82;21513;-51
2021/05/26 02:29:40;;;;;;;2.62;0.53;;;;;;;15.31;70.38;99689.77;1698715;82;21455;-53
2021/05/26 02:32:06;;;;;;;5.12;1.12;;;;;;;15.32;70.44;99692.86;1705403;82;21044;-52
2021/05/26 02:34:35;;;;;;;8.08;1.12;;;;;;;15.35;70.54;99698.58;1703408;82;21171;-53
2021/05/26 02:37:02;;;;;;;7.33;1.37;;;;;;;15.38;70.56;99706.52;1701538;82;21159;-52
2021/05/26 02:39:29;;;;;;;4.35;1.77;;;;;;;15.39;70.59;99700.99;1702960;82;21694;-51
2021/05/26 02:41:56;;;;;;;3.77;1.02;;;;;;;15.42;70.59;99695.33;1684404;82;21103;-52
2021/05/26 02:44:22;;;;;;;6.22;1.50;;;;;;;15.45;70.58;99705.98;1704487;82;21378;-53
2021/05/26 02:46:51;;;;;;;2.50;0.82;;;;;;;15.48;70.61;99707.11;1704547;82;21537;-51
2021/05/26 02:49:18;;;;;;;4.10;1.15;;;;;;;15.51;70.64;99711.46;1707678;82;22317;-50
2021/05/26 02:51:47;;;;;;;3.35;1.32;;;;;;;15.54;70.66;99712.65;1703108;82;21032;-50
2021/05/26 02:54:14;;;;;;;7.35;2.72;;;;;;;15.58;70.77;99711.45;1705198;82;21545;-50
2021/05/26 02:56:42;;;;;;;11.68;4.35;;;;;;;15.62;70.83;99710.76;1701241;82;20925;-51
2021/05/26 02:59:27;;;;;;;11.85;6.67;;;;;;;15.67;70.89;99696.37;1702195;82;21008;-51
2021/05/26 03:02:00;;;;;;;6.92;1.57;;;;;;;15.73;70.93;99681.04;1704917;82;21532;-51
2021/05/26 03:04:29;;;;;;;2.00;1.35;;;;;;;15.78;70.97;99668.88;1702260;82;21598;-52
2021/05/26 03:06:56;;;;;;;0.70;0.53;;;;;;;15.83;71.03;99665.33;1706451;82;21045;-50
2021/05/26 03:09:24;;;;;;;2.52;0.82;;;;;;;15.86;71.03;99661.05;1707526;82;21030;-52
2021/05/26 03:11:50;;;;;;;0.80;0.30;;;;;;;15.93;71.01;99666.91;1705311;82;21057;-51
2021/05/26 03:14:19;;;;;;;0.60;0.40;;;;;;;16.01;70.94;99669.94;1706611;82;20948;-53
2021/05/26 03:16:48;;;;;;;1.82;0.50;;;;;;;16.18;70.96;99655.14;1706965;82;21497;-53
2021/05/26 03:19:16;;;;;;;1.30;0.70;;;;;;;16.18;70.96;99655.14;1708046;82;21581;-52
2021/05/26 03:21:43;;;;;;;1.37;0.60;;;;;;;16.38;70.57;99658.64;1702581;82;20953;-51
2021/05/26 03:24:27;;;;;;;3.58;0.65;;;;;;;16.38;70.57;99658.64;1665001;85;21032;-53
2021/05/26 03:26:53;;;;;;;5.25;0.80;;;;;;;16.49;70.61;99670.08;1692775;82;21060;-51
2021/05/26 03:29:19;;;;;;;2.92;0.80;;;;;;;16.59;70.49;99682.84;1706249;82;21019;-51
2021/05/26 03:31:46;;;;;;;2.58;1.10;;;;;;;16.59;70.49;99682.84;1708363;82;21413;-51
2021/05/26 03:34:12;;;;;;;2.92;1.12;;;;;;;16.62;70.28;99703.05;1704447;82;20948;-52
2021/05/26 03:36:39;;;;;;;1.90;0.60;;;;;;;16.62;70.28;99703.05;1705192;82;20980;-51
2021/05/26 03:39:09;;;;;;;2.08;0.35;;;;;;;16.68;70.03;99724.81;1704234;82;21008;-50
2021/05/26 03:41:36;;;;;;;4.12;0.40;;;;;;;16.70;69.97;99726.06;1705374;82;21544;-52
2021/05/26 03:44:03;;;;;;;2.20;0.30;;;;;;;16.73;70.01;99734.87;1688616;82;21514;-52
2021/05/26 03:46:29;;;;;;;0.30;0.30;;;;;;;16.76;70.08;99735.15;1706050;82;21383;-52
2021/05/26 03:48:58;;;;;;;0.45;0.40;;;;;;;16.79;70.09;99739.85;1703793;82;21498;-51
2021/05/26 03:51:25;;;;;;;1.77;0.40;;;;;;;16.82;70.12;99741.00;1702769;82;21630;-50
2021/05/26 03:53:53;;;;;;;0.47;0.40;;;;;;;16.87;70.08;99744.72;1708093;82;21642;-51
2021/05/26 03:56:22;;;;;;;1.70;0.40;;;;;;;16.91;70.11;99752.55;1706925;82;21002;-52
2021/05/26 03:58:50;;;;;;;2.62;0.40;;;;;;;16.94;70.26;99759.09;1702401;82;20893;-51
2021/05/26 04:01:20;;;;;;;1.20;0.40;;;;;;;16.98;70.26;99759.27;1704551;82;21091;-53
2021/05/26 04:03:47;;;;;;;0.47;0.30;;;;;;;17.03;70.38;99759.77;1644256;85;21095;-54
2021/05/26 04:06:15;;;;;;;1.02;0.40;;;;;;;17.09;70.27;99763.91;1702869;82;21161;-50
2021/05/26 04:08:41;;;;;;;5.97;0.50;;;;;;;17.12;70.58;99759.58;1704250;82;21156;-51
2021/05/26 04:11:09;;;;;;;0.80;0.50;;;;;;;17.17;70.71;99763.33;1701174;82;21167;-51
2021/05/26 04:13:55;;;;;;;2.75;0.60;;;;;;;17.19;70.92;99765.41;1702950;82;21121;-52
2021/05/26 04:16:26;;;;;;;3.42;0.60;;;;;;;17.22;70.95;99766.06;1703659;82;21080;-52
2021/05/26 04:18:54;;;;;;;0.57;0.57;;;;;;;17.24;71.05;99760.03;1701716;82;21158;-50
2021/05/26 04:21:21;;;;;;;0.88;0.50;;;;;;;17.26;71.10;99760.79;1703655;82;21111;-51
2021/05/26 04:23:48;;;;;;;0.93;0.50;;;;;;;17.29;71.05;99748.78;1703164;82;21136;-50
2021/05/26 04:26:14;;;;;;;0.72;0.50;;;;;;;17.31;71.09;99748.19;1700608;82;21158;-50
2021/05/26 04:28:44;;;;;;;4.30;0.65;;;;;;;17.32;71.11;99748.07;1703170;82;21463;-51
2021/05/26 04:31:11;;;;;;;2.00;0.50;;;;;;;17.36;71.15;99740.52;1700542;82;21111;-53
2021/05/26 04:33:39;;;;;;;0.60;0.60;;;;;;;17.38;71.04;99738.56;1699033;82;21096;-51
2021/05/26 04:36:06;;;;;;;2.62;0.60;;;;;;;17.40;71.10;99752.92;1699384;82;21207;-51
2021/05/26 04:38:32;;;;;;;1.12;0.53;;;;;;;17.42;71.09;99765.06;1703301;82;21606;-51
2021/05/26 04:41:00;;;;;;;2.35;0.60;;;;;;;17.42;71.18;99769.14;1703030;82;21486;-53
2021/05/26 04:43:28;;;;;;;0.93;0.50;;;;;;;17.42;71.28;99767.78;1701373;82;21689;-50
2021/05/26 04:45:56;;;;;;;2.15;0.57;;;;;;;17.42;71.38;99769.14;1701407;82;21616;-52
2021/05/26 04:48:23;;;;;;;0.80;0.57;;;;;;;17.41;71.42;99764.19;1701091;82;20978;-51
2021/05/26 04:50:49;;;;;;;0.40;0.40;;;;;;;17.42;71.45;99767.29;1701466;82;21092;-52
2021/05/26 04:53:15;;;;;;;1.25;0.80;;;;;;;17.43;71.54;99774.47;1707984;82;21104;-53
2021/05/26 04:55:41;;;;;;;2.45;0.60;;;;;;;17.44;71.64;99769.91;1705721;82;22178;-51
2021/05/26 04:58:08;;;;;;;2.45;0.60;;;;;;;17.44;71.69;99771.27;1701599;82;21729;-51
2021/05/26 05:00:35;;;;;;;1.07;0.68;;;;;;;17.45;71.82;99763.45;1706119;82;20917;-52
2021/05/26 05:03:01;;;;;;;2.40;0.70;;;;;;;17.45;71.80;99753.43;1708484;82;20972;-51
2021/05/26 05:05:33;;;;;;;2.30;0.70;;;;;;;17.46;71.82;99757.89;1706553;82;21000;-52
2021/05/26 05:08:01;;;;;;;1.77;0.62;;;;;;;17.49;71.76;99751.36;1702754;82;21107;-51
2021/05/26 05:10:27;;;;;;;0.80;0.50;;;;;;;17.51;71.85;99743.95;1711260;82;20952;-53
2021/05/26 05:12:53;;;;;;;2.52;0.60;;;;;;;17.54;71.83;99749.14;1700087;82;21067;-54
2021/05/26 05:15:21;;;;;;;0.70;0.60;;;;;;;17.59;71.88;99758.70;1702623;82;21092;-53
2021/05/26 05:17:50;;;;;;;2.65;0.70;;;;;;;17.65;71.74;99761.47;1701612;82;21617;-54
2021/05/26 05:20:20;;;;;;;2.17;0.60;;;;;;;17.70;71.67;99755.16;1701884;82;21119;-52
2021/05/26 05:22:51;;;;;;;2.52;0.90;;;;;;;17.75;71.62;99759.78;1702347;82;21131;-54
2021/05/26 05:25:17;;;;;;;0.65;0.65;;;;;;;17.78;71.50;99760.88;1699672;82;21025;-54
2021/05/26 05:27:44;;;;;;;4.67;0.88;;;;;;;17.80;71.20;99760.77;1702320;82;21064;-50
2021/05/26 05:30:11;;;;;;;1.80;0.62;;;;;;;17.82;71.14;99759.67;1707326;82;21120;-54
2021/05/26 05:32:37;;;;;;;2.98;0.70;;;;;;;17.85;71.21;99774.91;1703641;82;21797;-53
2021/05/26 05:35:05;;;;;;;0.88;0.70;;;;;;;17.87;71.22;99766.10;1699683;82;21099;-52
2021/05/26 05:37:31;;;;;;;3.12;0.60;;;;;;;17.91;71.30;99775.78;1700033;82;21139;-52
2021/05/26 05:39:57;;;;;;;2.70;0.70;;;;;;;17.94;71.17;99769.62;1701119;82;21576;-51
2021/05/26 05:42:24;;;;;;;4.50;0.80;;;;;;;18.00;70.94;99780.02;1708536;80;21661;-52
2021/05/26 05:44:50;;;;;;;0.82;0.70;;;;;;;18.08;70.94;99779.42;1726425;80;22691;-51
2021/05/26 05:47:17;;;;;;;1.12;0.80;;;;;;;18.15;70.89;99776.08;1725372;80;21460;-51
2021/05/26 05:49:43;;;;;;;3.87;0.70;;;;;;;18.25;70.50;99775.36;1726779;81;20964;-50
2021/05/26 05:52:11;;;;;;;2.62;0.70;;;;;;;18.32;69.99;99770.66;1723615;80;21124;-51
2021/05/26 05:54:38;;;;;;;6.30;1.05;;;;;;;18.40;69.62;99766.82;1724841;80;20923;-50
2021/05/26 05:57:05;;;;;;;1.05;0.60;;;;;;;18.51;69.58;99767.33;1730873;80;21552;-50
2021/05/26 05:59:32;;;;;;;1.75;0.60;;;;;;;18.65;69.38;99777.14;1729137;80;20933;-53
2021/05/26 06:02:00;;;;;;;0.93;0.70;;;;;;;18.78;68.83;99778.77;1684709;83;20950;-51
2021/05/26 06:04:27;;;;;;;0.80;0.60;;;;;;;18.92;68.32;99780.34;1659744;84;21010;-53
2021/05/26 06:06:55;;;;;;;5.20;0.80;;;;;;;19.04;67.73;99788.03;1658500;84;21082;-52
2021/05/26 06:09:21;;;;;;;0.57;0.50;;;;;;;19.13;67.26;99784.54;1728693;80;21194;-51
2021/05/26 06:11:48;;;;;;;1.37;0.50;;;;;;;19.21;66.86;99784.27;1722415;80;21119;-54
2021/05/26 06:14:17;;;;;;;2.02;0.60;;;;;;;19.30;66.21;99779.91;1681642;83;21060;-55
2021/05/26 06:16:45;;;;;;;2.85;0.40;;;;;;;19.38;65.97;99786.09;1731305;80;20926;-53
2021/05/26 06:19:11;;;;;;;0.60;0.42;;;;;;;19.47;65.72;99788.05;1729162;80;20945;-50
2021/05/26 06:21:37;;;;;;;4.20;0.65;;;;;;;19.52;65.31;99796.23;1727855;80;21043;-53
2021/05/26 06:24:04;;;;;;;0.60;0.50;;;;;;;19.61;65.09;99794.09;1708673;82;20998;-51
2021/05/26 06:26:32;;;;;;;1.75;0.60;;;;;;;19.68;64.88;99797.66;1730443;80;20940;-53
2021/05/26 06:28:59;;;;;;;1.12;0.50;;;;;;;19.72;64.79;99801.88;1729201;80;21916;-51
2021/05/26 06:31:26;;;;;;;2.33;0.55;;;;;;;19.76;64.49;99798.74;1727445;80;20961;-52
2021/05/26 06:33:52;;;;;;;2.12;0.50;;;;;;;19.79;63.88;99798.49;1726899;80;21601;-52
2021/05/26 06:36:19;;;;;;;2.42;0.70;;;;;;;19.83;63.72;99800.44;1722423;80;21183;-54
2021/05/26 06:38:46;;;;;;;2.12;0.47;;;;;;;19.87;64.14;99804.66;1726073;80;21206;-51
2021/05/26 06:41:12;;;;;;;2.55;0.57;;;;;;;19.92;64.29;99805.12;1725126;81;21167;-49
2021/05/26 06:43:39;;;;;;;1.87;0.55;;;;;;;19.98;64.32;99801.38;1721085;80;21140;-51
2021/05/26 06:46:06;;;;;;;0.65;0.50;;;;;;;20.02;64.42;99805.57;1703319;82;21852;-51
2021/05/26 06:48:33;;;;;;;0.93;0.57;;;;;;;20.03;63.84;99805.94;1702725;82;22990;-52
2021/05/26 06:50:59;;;;;;;0.85;0.50;;;;;;;20.03;63.29;99805.94;1699047;82;21543;-53
2021/05/26 06:53:26;;;;;;;0.95;0.60;;;;;;;20.01;63.16;99807.93;1700655;82;21071;-54
2021/05/26 06:55:53;;;;;;;3.15;0.53;;;;;;;20.02;63.35;99806.06;1701569;82;21045;-54
2021/05/26 06:58:19;;;;;;;1.17;0.50;;;;;;;20.03;63.34;99805.94;1701206;82;21141;-54
2021/05/26 07:00:46;;;;;;;3.17;0.60;;;;;;;20.06;63.29;99809.41;1700252;82;21447;-54
2021/05/26 07:03:12;;;;;;;1.57;0.60;;;;;;;20.08;63.73;99812.86;1697514;82;21199;-50
2021/05/26 07:05:39;;;;;;;0.72;0.45;;;;;;;20.11;63.62;99818.94;1700135;82;21744;-51
2021/05/26 07:08:05;;;;;;;1.55;0.50;;;;;;;20.12;63.55;99819.30;1701572;82;21029;-51
2021/05/26 07:10:32;;;;;;;0.88;0.40;;;;;;;20.13;62.90;99822.91;1702751;82;21100;-53
2021/05/26 07:12:58;;;;;;;0.90;0.50;;;;;;;20.12;62.97;99834.34;1702857;82;21143;-50
2021/05/26 07:15:25;;;;;;;0.50;0.42;;;;;;;20.13;63.14;99835.20;1701497;82;21163;-54
2021/05/26 07:17:54;;;;;;;2.42;0.40;;;;;;;20.15;63.23;99838.18;1701106;82;21135;-53
2021/05/26 07:20:20;;;;;;;0.62;0.50;;;;;;;20.16;63.19;99839.89;1701885;82;21016;-53
2021/05/26 07:22:46;;;;;;;6.67;0.53;;;;;;;20.14;63.13;99843.28;1705015;82;21811;-55
2021/05/26 07:25:13;;;;;;;0.88;0.50;;;;;;;20.13;63.45;99845.64;1703304;82;21120;-53
2021/05/26 07:27:39;;;;;;;0.60;0.50;;;;;;;20.12;62.96;99852.59;1701660;82;21131;-53
2021/05/26 07:30:08;;;;;;;1.52;0.50;;;;;;;20.06;62.83;99849.91;1702265;82;21166;-52
2021/05/26 07:32:34;;;;;;;1.52;0.50;;;;;;;19.99;62.71;99850.90;1702580;82;21092;-51
2021/05/26 07:35:01;;;;;;;1.52;0.60;;;;;;;19.93;62.96;99856.03;1699497;82;21131;-51
2021/05/26 07:37:29;;;;;;;1.07;0.50;;;;;;;19.87;63.21;99851.97;1699581;82;21119;-53
2021/05/26 07:39:55;;;;;;;2.22;0.60;;;;;;;19.85;63.62;99852.59;1702241;82;21367;-52
2021/05/26 07:42:22;;;;;;;1.35;0.50;;;;;;;19.84;63.84;99852.71;1706278;82;21151;-54
2021/05/26 07:44:49;;;;;;;2.75;0.50;;;;;;;19.81;63.85;99855.23;1703373;81;21759;-52
2021/05/26 07:47:16;;;;;;;2.98;0.57;;;;;;;19.78;64.30;99849.14;1710329;81;21135;-54
2021/05/26 07:49:43;;;;;;;0.95;0.50;;;;;;;19.76;64.36;99853.86;1711446;81;21589;-52
2021/05/26 07:52:12;;;;;;;0.68;0.55;;;;;;;19.70;64.25;99856.63;1712151;81;21386;-51
2021/05/26 07:54:40;;;;;;;0.70;0.50;;;;;;;19.65;64.47;99860.22;1712330;81;21450;-52
2021/05/26 07:57:07;;;;;;;2.35;0.40;;;;;;;19.59;64.81;99865.70;1710159;81;21171;-51
2021/05/26 07:59:34;;;;;;;0.70;0.50;;;;;;;19.55;65.10;99868.34;1712868;81;22081;-53
2021/05/26 08:02:00;;;;;;;3.77;0.60;;;;;;;19.53;65.02;99862.63;1677493;81;21078;-52
2021/05/26 08:04:26;;;;;;;3.42;0.70;;;;;;;19.52;65.07;99869.08;1660727;84;21105;-53
2021/05/26 08:06:52;;;;;;;1.12;0.60;;;;;;;19.49;65.10;99868.83;1662244;84;21039;-54
2021/05/26 08:09:19;;;;;;;1.42;0.60;;;;;;;19.45;65.32;99865.97;1664704;84;21134;-54
2021/05/26 08:11:46;;;;;;;2.15;0.60;;;;;;;19.43;65.39;99873.41;1662757;84;21567;-53
2021/05/26 08:14:12;;;;;;;1.50;0.60;;;;;;;19.40;65.52;99874.14;1662728;84;21224;-52
2021/05/26 08:16:38;;;;;;;0.70;0.50;;;;;;;19.36;65.64;99875.41;1662090;84;22273;-52
2021/05/26 08:19:04;;;;;;;0.72;0.50;;;;;;;19.32;65.83;99880.24;1667790;84;21138;-52
2021/05/26 08:21:32;;;;;;;3.05;0.50;;;;;;;19.28;65.94;99878.28;1661700;84;21810;-53
2021/05/26 08:23:58;;;;;;;0.72;0.50;;;;;;;19.26;66.25;99878.89;1663747;84;21039;-51
2021/05/26 08:26:24;;;;;;;1.35;0.50;;;;;;;19.25;66.43;99878.52;1666022;84;21529;-52
2021/05/26 08:28:52;;;;;;;0.70;0.60;;;;;;;19.24;66.12;99860.91;1669520;84;20920;-50
2021/05/26 08:31:20;;;;;;;1.10;1.02;;;;;;;19.23;66.08;99858.67;1662814;84;21043;-54
2021/05/26 08:33:46;;;;;;;2.25;0.50;;;;;;;19.22;65.78;99855.56;1664728;84;21095;-54
2021/05/26 08:36:13;;;;;;;2.55;0.50;;;;;;;19.21;65.81;99859.81;1663888;84;21143;-51
2021/05/26 08:38:39;;;;;;;1.90;0.70;;;;;;;19.21;66.09;99866.63;1667420;84;21764;-53
2021/05/26 08:41:06;;;;;;;0.72;0.50;;;;;;;19.21;65.97;99868.00;1660801;84;21129;-54
2021/05/26 08:43:39;;;;;;;2.27;0.60;;;;;;;19.20;65.94;99863.53;1660916;84;21094;-54
2021/05/26 08:46:06;;;;;;;4.25;0.70;;;;;;;19.20;66.32;99873.95;1675997;83;21325;-53
2021/05/26 08:48:33;;;;;;;0.55;0.45;;;;;;;19.19;66.41;99873.58;1675498;83;21045;-54
2021/05/26 08:51:00;;;;;;;1.95;0.60;;;;;;;19.19;66.61;99872.70;1674847;83;21135;-54
2021/05/26 08:53:26;;;;;;;1.90;0.70;;;;;;;19.19;66.75;99873.58;1672159;83;21147;-52
2021/05/26 08:55:55;;;;;;;0.80;0.60;;;;;;;19.18;66.66;99868.23;1677096;83;21372;-51
2021/05/26 08:58:21;;;;;;;1.10;0.60;;;;;;;19.17;66.81;99871.45;1675113;83;20977;-51
2021/05/26 09:00:48;;;;;;;0.68;0.50;;;;;;;19.15;66.84;99871.20;1676908;83;21583;-52
2021/05/26 09:03:14;;;;;;;0.75;0.60;;;;;;;19.12;66.93;99868.25;1673897;83;21107;-51
2021/05/26 09:05:44;;;;;;;1.80;0.60;;;;;;;19.12;67.12;99876.94;1670363;83;21103;-51
2021/05/26 09:08:19;;;;;;;1.00;0.50;;;;;;;19.08;67.01;99872.20;1673541;83;22067;-52
2021/05/26 09:10:50;;;;;;;4.22;0.50;;;;;;;19.06;67.04;99866.00;1675966;83;20981;-53
2021/05/26 09:13:36;;;;;;;2.75;0.60;;;;;;;19.04;67.11;99872.10;1674999;83;21645;-50
2021/05/26 09:16:27;;;;;;;3.10;0.70;;;;;;;19.03;67.28;99862.18;1671398;83;21001;-51
2021/05/26 09:19:06;;;;;;;2.58;0.68;;;;;;;19.08;67.44;99867.24;1679119;83;20939;-52
2021/05/26 09:21:42;;;;;;;5.75;0.70;;;;;;;19.09;67.43;99871.71;1672618;83;21000;-54
2021/05/26 09:24:27;;;;;;;0.72;0.72;;;;;;;19.08;67.45;99875.43;1675554;83;22079;-52
2021/05/26 09:27:01;;;;;;;1.57;0.70;;;;;;;19.04;67.47;99872.10;1677174;83;21055;-53
2021/05/26 09:29:33;;;;;;;2.35;0.70;;;;;;;19.02;67.42;99870.48;1677602;83;21037;-51
2021/05/26 09:32:21;;;;;;;1.80;0.90;;;;;;;18.98;67.45;99875.30;1676574;83;20917;-52
2021/05/26 09:34:52;;;;;;;1.00;0.70;;;;;;;18.89;67.50;99875.55;1674992;83;21075;-54
2021/05/26 09:37:30;;;;;;;1.22;0.90;;;;;;;18.86;67.93;99880.41;1674631;83;21509;-52
2021/05/26 09:40:07;;;;;;;1.80;0.80;;;;;;;18.85;68.00;99872.72;1676995;83;21593;-52
2021/05/26 09:42:41;;;;;;;3.90;0.88;;;;;;;18.86;67.97;99888.58;1673385;83;21175;-50
2021/05/26 09:45:16;;;;;;;2.70;0.80;;;;;;;18.89;68.05;99888.31;1669609;83;21226;-51
2021/05/26 09:47:50;;;;;;;0.60;0.60;;;;;;;18.92;68.28;99900.85;1667629;84;21122;-51
2021/05/26 09:50:30;;;;;;;4.40;0.75;;;;;;;18.91;68.29;99895.89;1664309;84;21514;-53
2021/05/26 09:53:11;;;;;;;1.35;0.65;;;;;;;18.92;68.17;99907.67;1662637;84;21366;-52
2021/05/26 09:55:44;;;;;;;2.35;0.88;;;;;;;18.89;68.22;99915.09;1661376;84;21339;-53
2021/05/26 09:58:12;;;;;;;3.40;0.70;;;;;;;18.87;68.48;99906.69;1661836;84;21779;-52
2021/05/26 10:00:41;;;;;;;1.30;0.90;;;;;;;18.86;68.49;99909.04;1664347;84;21139;-52
2021/05/26 10:03:07;;;;;;;2.15;0.80;;;;;;;18.83;68.61;99909.27;1664944;84;20979;-53
2021/05/26 10:05:34;;;;;;;1.67;0.80;;;;;;;18.79;68.67;99913.25;1666778;84;21488;-52
2021/05/26 10:08:20;;;;;;;0.88;0.60;;;;;;;18.75;68.93;99915.34;1663056;84;21091;-51
2021/05/26 10:10:55;;;;;;;0.85;0.70;;;;;;;18.70;69.30;99917.58;1657599;84;21560;-53
2021/05/26 10:13:24;;;;;;;1.67;0.80;;;;;;;18.64;69.99;99923.48;1664606;84;21052;-52
2021/05/26 10:15:50;;;;;;;2.55;1.00;;;;;;;18.63;70.61;99932.66;1660918;84;21126;-52
2021/05/26 10:18:18;;;;;;;1.47;1.00;;;;;;;18.63;71.07;99927.20;1662818;84;21027;-53
2021/05/26 10:20:45;;;;;;;1.50;0.98;;;;;;;18.61;71.51;99929.70;1660836;84;21142;-51
2021/05/26 10:23:17;;;;;;;1.72;1.10;;;;;;;18.59;71.90;99923.48;1664765;84;21735;-53
2021/05/26 10:25:44;;;;;;;1.60;1.25;;;;;;;18.54;72.17;99926.03;1662938;84;21107;-52
2021/05/26 10:28:31;;;;;;;3.42;1.40;;;;;;;18.49;72.60;99920.09;1664384;84;21888;-54
2021/05/26 10:30:58;;;;;;;1.40;1.17;;;;;;;18.48;72.95;99922.92;1664527;84;21984;-54
2021/05/26 10:33:45;;;;;;;1.10;0.90;;;;;;;18.47;73.12;99922.55;1662309;84;21079;-52
2021/05/26 10:36:12;;;;;;;1.50;1.00;;;;;;;18.45;73.44;99915.01;1661435;84;21126;-52
2021/05/26 10:38:54;;;;;;;1.70;1.15;;;;;;;18.45;73.92;99919.97;1662873;84;21621;-53
2021/05/26 10:41:21;;;;;;;2.65;1.10;;;;;;;18.47;74.18;99923.91;1665469;84;22389;-53
2021/05/26 10:43:56;;;;;;;1.90;1.00;;;;;;;18.47;74.41;99924.78;1662421;84;21150;-54
2021/05/26 10:46:35;;;;;;;1.37;1.20;;;;;;;18.47;74.53;99926.14;1668044;83;21118;-52
2021/05/26 10:49:06;;;;;;;2.25;1.20;;;;;;;18.47;74.65;99919.82;1673115;83;22022;-54
2021/05/26 10:51:56;;;;;;;2.08;1.00;;;;;;;18.44;74.55;99918.72;1676950;83;21506;-54
2021/05/26 10:57:26;;;;;;;1.07;0.98;;;;;;;18.45;74.51;99913.64;1791949;77;27986;-53
2021/05/26 11:00:24;;;;;;;1.50;1.10;;;;;;;18.41;74.49;99907.55;1764316;78;21019;-54
2021/05/26 11:03:28;;;;;;;1.00;0.90;;;;;;;18.45;74.52;99902.25;1747732;78;21369;-54
2021/05/26 11:06:04;;;;;;;2.85;0.90;;;;;;;18.51;74.43;99907.70;1754162;78;20948;-53
2021/05/26 11:08:52;;;;;;;1.45;1.22;;;;;;;18.57;73.94;99899.56;1768132;78;21023;-55
2021/05/26 11:11:38;;;;;;;1.80;1.42;;;;;;;18.61;73.67;99900.58;1762910;78;21000;-52
2021/05/26 11:14:11;;;;;;;1.40;1.30;;;;;;;18.67;73.72;99895.13;1763808;78;21033;-52
2021/05/26 11:16:51;;;;;;;3.75;1.57;;;;;;;18.73;73.77;99889.17;1763888;78;21333;-54
2021/05/26 11:19:21;;;;;;;5.67;1.20;;;;;;;18.78;73.57;99894.66;1759768;78;21039;-54
2021/05/26 11:21:56;;;;;;;1.40;1.15;;;;;;;18.85;73.75;99896.39;1764736;78;20933;-53
2021/05/26 11:26:40;;;;;;;1.60;1.07;;;;;;;18.97;73.39;99887.20;1747026;79;28086;-53
2021/05/26 11:29:07;;;;;;;1.47;1.37;;;;;;;18.93;73.23;99885.73;1726358;80;21074;-50
2021/05/26 11:31:33;;;;;;;1.37;1.07;;;;;;;18.96;73.04;99888.72;1723021;80;21095;-50
2021/05/26 11:34:00;;;;;;;3.15;1.15;;;;;;;18.99;72.91;99885.23;1721645;80;21346;-52
2021/05/26 11:36:44;;;;;;;1.65;1.10;;;;;;;19.02;72.71;99881.39;1729668;80;21430;-51
2021/05/26 11:39:27;;;;;;;2.35;1.55;;;;;;;19.07;72.67;99869.59;1686537;80;20956;-51
2021/05/26 11:42:14;;;;;;;3.30;1.27;;;;;;;19.15;72.57;99864.38;1723310;80;21000;-53
2021/05/26 11:44:45;;;;;;;2.45;1.10;;;;;;;19.20;72.37;99853.98;1711923;82;21580;-52
2021/05/26 11:47:11;;;;;;;1.65;0.90;;;;;;;19.27;72.24;99862.89;1679033;83;20920;-50
2021/05/26 11:49:42;;;;;;;1.87;0.90;;;;;;;19.31;71.58;99864.02;1674041;84;20944;-51